Searchmont, Canada
Current Conditions -  °F | °C
As of 3:55 PM on Saturday 25 Oct 2014 (Local Time) from KANJ Reporting Station
Overcast Overcast  
Wind Chill: 51°   Ceiling: 5500
Heat Index: 51°   Visibility: 10mi
Dew Point: 36°   Wind: 21mph
Humidity: 56%   Direction: 280°W
Pressure: 29.65"   Gusts: 28mph
Location:  46.78°N, 84.05°W
Report Text: KANJ 251955Z AUTO 28018G24KT 10SM OVC055 11/02 A2965 RMK AO2 PK WND 31034/1910 SLP040 T01060022
Loading
Personal Weather Stations






























Interactive Weather Map
Tropical Storm Tracking
New forecast layout! Learn more

10-Day Weather Forecast

Advertisements
Track Severe Weather on mobile